Time,TemperatureF,DewpointF,PressureIn,WindDirection,WindDirectionDegrees,WindSpeedMPH,WindSpeedGustMPH,Humidity,HourlyPrecipIn,Conditions,Clouds,dailyrainin,SoftwareType,DateUTC
2013-08-01 00:05:00,66.2,59.5,30.03,SW,217,1.0,11.0,79,0.00,,,0.00,Wunderground v.1.15,2013-08-01 04:05:00,
2013-08-01 00:10:00,66.2,59.5,30.03,SW,217,1.0,11.0,79,0.00,,,0.00,Wunderground v.1.15,2013-08-01 04:10:00,
2013-08-01 00:15:00,66.1,59.4,30.03,SW,217,2.0,11.0,79,0.00,,,0.00,Wunderground v.1.15,2013-08-01 04:15:00,
2013-08-01 00:20:00,65.8,59.5,30.03,SW,217,2.0,11.0,80,0.00,,,0.00,Wunderground v.1.15,2013-08-01 04:20:00,
2013-08-01 00:25:00,65.7,59.4,30.03,SSW,208,2.0,11.0,80,0.00,,,0.00,Wunderground v.1.15,2013-08-01 04:25:00,
2013-08-01 00:30:00,65.5,59.5,30.03,SSW,201,2.0,11.0,81,0.00,,,0.00,Wunderground v.1.15,2013-08-01 04:30:00,
2013-08-01 00:35:00,65.4,59.8,30.03,SSW,200,2.0,11.0,82,0.00,,,0.00,Wunderground v.1.15,2013-08-01 04:35:00,
2013-08-01 00:40:00,65.3,60.0,30.03,SSW,200,2.0,2.0,83,0.00,,,0.00,Wunderground v.1.15,2013-08-01 04:40:00,
2013-08-01 00:45:00,65.2,59.9,30.03,SSW,201,1.0,3.0,83,0.00,,,0.00,Wunderground v.1.15,2013-08-01 04:45:00,
2013-08-01 00:55:00,64.9,59.9,30.03,SSW,207,2.0,2.0,84,0.00,,,0.00,Wunderground v.1.15,2013-08-01 04:55:00,
2013-08-01 01:00:00,64.9,60.3,30.03,SW,221,1.0,11.0,85,0.00,,,0.00,Wunderground v.1.15,2013-08-01 05:00:00,
2013-08-01 01:05:00,64.9,59.9,30.03,SW,233,2.0,11.0,84,0.00,,,0.00,Wunderground v.1.15,2013-08-01 05:05:00,
2013-08-01 01:10:00,65.1,60.1,30.03,SW,234,2.0,11.0,84,0.00,,,0.00,Wunderground v.1.15,2013-08-01 05:10:00,
2013-08-01 01:20:00,65.1,60.1,30.02,SW,230,2.0,11.0,84,0.00,,,0.00,Wunderground v.1.15,2013-08-01 05:20:00,
2013-08-01 01:25:00,65.2,60.2,30.02,SW,231,2.0,11.0,84,0.00,,,0.00,Wunderground v.1.15,2013-08-01 05:25:00,
2013-08-01 01:30:00,65.1,59.8,30.02,SW,234,3.0,3.0,83,0.00,,,0.00,Wunderground v.1.15,2013-08-01 05:30:00,
2013-08-01 01:35:00,65.3,60.0,30.02,SW,234,3.0,4.0,83,0.00,,,0.00,Wunderground v.1.15,2013-08-01 05:35:00,
2013-08-01 01:45:00,65.5,59.9,30.01,WSW,245,4.0,4.0,82,0.00,,,0.00,Wunderground v.1.15,2013-08-01 05:45:00,
2013-08-01 01:50:00,65.5,59.9,30.01,WSW,240,4.0,4.0,82,0.00,,,0.00,Wunderground v.1.15,2013-08-01 05:50:00,
2013-08-01 01:55:00,65.4,59.8,30.01,SSW,192,3.0,11.0,82,0.00,,,0.00,Wunderground v.1.15,2013-08-01 05:55:00,
2013-08-01 02:05:00,65.0,59.7,30.01,South,190,3.0,11.0,83,0.00,,,0.00,Wunderground v.1.15,2013-08-01 06:05:00,
2013-08-01 02:15:00,64.5,59.9,30.00,WSW,250,2.0,11.0,85,0.00,,,0.00,Wunderground v.1.15,2013-08-01 06:15:00,
2013-08-01 02:20:00,64.2,59.9,30.01,WSW,250,1.0,1.0,86,0.00,,,0.00,Wunderground v.1.15,2013-08-01 06:20:00,
2013-08-01 02:25:00,64.2,59.9,30.01,WSW,250,2.0,2.0,86,0.00,,,0.00,Wunderground v.1.15,2013-08-01 06:25:00,
2013-08-01 02:35:00,64.3,60.0,30.00,SSW,197,1.0,11.0,86,0.00,,,0.00,Wunderground v.1.15,2013-08-01 06:35:00,
2013-08-01 02:40:00,64.2,60.2,30.00,WSW,245,2.0,11.0,87,0.00,,,0.00,Wunderground v.1.15,2013-08-01 06:40:00,
2013-08-01 02:45:00,64.2,60.2,30.00,SW,234,3.0,11.0,87,0.00,,,0.00,Wunderground v.1.15,2013-08-01 06:45:00,
2013-08-01 02:50:00,64.4,60.4,30.00,SW,228,3.0,3.0,87,0.00,,,0.00,Wunderground v.1.15,2013-08-01 06:50:00,
2013-08-01 03:00:00,64.5,60.5,30.00,WSW,245,3.0,11.0,87,0.00,,,0.00,Wunderground v.1.15,2013-08-01 07:00:00,
2013-08-01 03:05:00,64.6,60.6,30.00,WSW,238,3.0,11.0,87,0.00,,,0.00,Wunderground v.1.15,2013-08-01 07:05:00,
2013-08-01 03:10:00,64.7,60.4,30.00,SW,223,3.0,3.0,86,0.00,,,0.00,Wunderground v.1.15,2013-08-01 07:10:00,
2013-08-01 03:15:00,64.8,60.8,29.99,SW,224,3.0,11.0,87,0.00,,,0.00,Wunderground v.1.15,2013-08-01 07:15:00,
2013-08-01 03:20:00,64.9,60.9,29.99,WSW,245,3.0,11.0,87,0.00,,,0.00,Wunderground v.1.15,2013-08-01 07:20:00,
2013-08-01 03:30:00,64.8,60.8,29.99,WSW,238,2.0,2.0,87,0.00,,,0.00,Wunderground v.1.15,2013-08-01 07:30:00,
2013-08-01 03:35:00,64.7,60.7,29.99,SW,218,2.0,11.0,87,0.00,,,0.00,Wunderground v.1.15,2013-08-01 07:35:00,
2013-08-01 03:40:00,64.6,61.0,29.99,SW,226,2.0,11.0,88,0.00,,,0.00,Wunderground v.1.15,2013-08-01 07:40:00,
2013-08-01 03:50:00,64.5,60.9,29.99,SW,226,2.0,11.0,88,0.00,,,0.00,Wunderground v.1.15,2013-08-01 07:50:00,
2013-08-01 04:00:00,64.5,61.2,29.98,SW,226,2.0,11.0,89,0.00,,,0.00,Wunderground v.1.15,2013-08-01 08:00:00,
2013-08-01 04:05:00,64.5,61.2,29.98,SW,227,3.0,11.0,89,0.00,,,0.00,Wunderground v.1.15,2013-08-01 08:05:00,
2013-08-01 04:15:00,64.2,60.6,29.99,SW,227,1.0,11.0,88,0.00,,,0.00,Wunderground v.1.15,2013-08-01 08:15:00,
2013-08-01 04:20:00,64.0,60.4,29.99,SW,227,0.0,11.0,88,0.00,,,0.00,Wunderground v.1.15,2013-08-01 08:20:00,
2013-08-01 04:25:00,63.6,60.0,29.99,SW,227,0.0,11.0,88,0.00,,,0.00,Wunderground v.1.15,2013-08-01 08:25:00,
2013-08-01 04:35:00,62.9,59.6,29.99,SW,227,0.0,11.0,89,0.00,,,0.00,Wunderground v.1.15,2013-08-01 08:35:00,
2013-08-01 04:41:00,62.6,59.6,29.99,SW,227,0.0,11.0,90,0.00,,,0.00,Wunderground v.1.15,2013-08-01 08:41:00,
2013-08-01 04:50:00,62.4,60.0,29.99,SW,227,0.0,11.0,92,0.00,,,0.00,Wunderground v.1.15,2013-08-01 08:50:00,
2013-08-01 04:55:00,62.6,60.5,29.99,SW,227,0.0,11.0,93,0.00,,,0.00,Wunderground v.1.15,2013-08-01 08:55:00,
2013-08-01 05:06:00,62.3,59.9,29.99,SW,227,0.0,11.0,92,0.00,,,0.00,Wunderground v.1.15,2013-08-01 09:06:00,
2013-08-01 05:15:00,62.1,60.1,29.99,SW,227,0.0,11.0,93,0.00,,,0.00,Wunderground v.1.15,2013-08-01 09:15:00,
2013-08-01 05:25:00,62.0,60.0,29.99,SW,227,0.0,11.0,93,0.00,,,0.00,Wunderground v.1.15,2013-08-01 09:25:00,
2013-08-01 05:35:00,62.0,60.3,29.99,SW,227,0.0,11.0,94,0.00,,,0.00,Wunderground v.1.15,2013-08-01 09:35:00,
2013-08-01 05:50:00,61.3,59.6,29.99,SW,227,2.0,2.0,94,0.00,,,0.00,Wunderground v.1.15,2013-08-01 09:50:00,
2013-08-01 05:55:00,61.2,59.8,29.99,SW,227,1.0,11.0,95,0.00,,,0.00,Wunderground v.1.15,2013-08-01 09:55:00,
2013-08-01 06:01:00,61.3,59.9,29.99,SW,227,1.0,1.0,95,0.00,,,0.00,Wunderground v.1.15,2013-08-01 10:01:00,
2013-08-01 06:06:00,61.4,60.0,29.99,SW,227,0.0,11.0,95,0.00,,,0.00,Wunderground v.1.15,2013-08-01 10:06:00,
2013-08-01 06:15:00,61.7,60.3,29.99,SW,227,0.0,11.0,95,0.00,,,0.00,Wunderground v.1.15,2013-08-01 10:15:00,
2013-08-01 06:21:00,61.9,60.5,29.99,SW,227,0.0,11.0,95,0.00,,,0.00,Wunderground v.1.15,2013-08-01 10:21:00,
2013-08-01 06:30:00,62.0,60.6,29.99,SW,223,2.0,11.0,95,0.00,,,0.00,Wunderground v.1.15,2013-08-01 10:30:00,
2013-08-01 06:35:00,61.9,60.2,29.99,SW,223,2.0,11.0,94,0.00,,,0.00,Wunderground v.1.15,2013-08-01 10:35:00,
2013-08-01 06:45:00,61.7,60.0,29.99,SW,223,1.0,11.0,94,0.00,,,0.00,Wunderground v.1.15,2013-08-01 10:45:00,
2013-08-01 06:51:00,61.8,60.1,29.99,SW,223,3.0,11.0,94,0.00,,,0.00,Wunderground v.1.15,2013-08-01 10:51:00,
2013-08-01 07:00:00,62.5,61.0,29.99,SW,223,2.0,2.0,95,0.00,,,0.00,Wunderground v.1.15,2013-08-01 11:00:00,
2013-08-01 07:06:00,63.0,61.5,29.99,SW,223,1.0,11.0,95,0.00,,,0.00,Wunderground v.1.15,2013-08-01 11:06:00,
2013-08-01 07:11:00,63.6,62.1,29.99,SW,223,0.0,11.0,95,0.00,,,0.00,Wunderground v.1.15,2013-08-01 11:11:00,
2013-08-01 07:25:00,65.4,63.3,29.99,SW,223,0.0,11.0,93,0.00,,,0.00,Wunderground v.1.15,2013-08-01 11:25:00,
2013-08-01 07:35:00,67.0,64.0,29.99,SW,223,0.0,11.0,90,0.00,,,0.00,Wunderground v.1.15,2013-08-01 11:35:00,
2013-08-01 07:41:00,67.6,63.9,29.99,SW,223,0.0,11.0,88,0.00,,,0.00,Wunderground v.1.15,2013-08-01 11:41:00,
2013-08-01 07:50:00,67.7,63.7,29.99,SW,223,1.0,1.0,87,0.00,,,0.00,Wunderground v.1.15,2013-08-01 11:50:00,
2013-08-01 08:00:00,68.3,63.3,29.99,SW,223,1.0,11.0,84,0.00,,,0.00,Wunderground v.1.15,2013-08-01 12:00:00,
2013-08-01 08:05:00,68.8,63.8,29.99,SW,223,2.0,11.0,84,0.00,,,0.00,Wunderground v.1.15,2013-08-01 12:05:00,
2013-08-01 08:16:00,69.9,63.8,29.98,SW,223,1.0,11.0,81,0.00,,,0.00,Wunderground v.1.15,2013-08-01 12:16:00,
2013-08-01 08:25:00,70.9,65.5,29.98,SW,223,0.0,11.0,83,0.00,,,0.00,Wunderground v.1.15,2013-08-01 12:25:00,
2013-08-01 08:30:00,72.0,65.8,29.98,SW,223,0.0,11.0,81,0.00,,,0.00,Wunderground v.1.15,2013-08-01 12:30:00,
2013-08-01 08:35:00,72.9,65.3,29.98,SSW,203,0.0,11.0,77,0.00,,,0.00,Wunderground v.1.15,2013-08-01 12:35:00,
2013-08-01 08:40:00,73.6,65.6,29.98,SE,136,0.0,11.0,76,0.00,,,0.00,Wunderground v.1.15,2013-08-01 12:40:00,
2013-08-01 08:45:00,74.3,65.9,29.97,SE,136,0.0,11.0,75,0.00,,,0.00,Wunderground v.1.15,2013-08-01 12:45:00,
2013-08-01 08:50:00,75.0,65.8,29.97,SE,136,0.0,11.0,73,0.00,,,0.00,Wunderground v.1.15,2013-08-01 12:50:00,
2013-08-01 09:00:00,75.5,65.4,29.97,ESE,113,1.0,1.0,71,0.00,,,0.00,Wunderground v.1.15,2013-08-01 13:00:00,
2013-08-01 09:05:00,75.6,65.5,29.97,ESE,111,1.0,11.0,71,0.00,,,0.00,Wunderground v.1.15,2013-08-01 13:05:00,
2013-08-01 09:30:00,76.1,66.4,29.96,SE,138,1.0,1.0,72,0.00,,,0.00,Wunderground v.1.15,2013-08-01 13:30:00,
2013-08-01 09:35:00,76.5,66.8,29.96,SE,132,1.0,11.0,72,0.00,,,0.00,Wunderground v.1.15,2013-08-01 13:35:00,
2013-08-01 09:40:00,75.5,64.6,29.96,SSE,159,3.0,11.0,69,0.00,,,0.00,Wunderground v.1.15,2013-08-01 13:40:00,
2013-08-01 09:46:00,74.4,65.2,29.96,SSE,157,4.0,11.0,73,0.00,,,0.00,Wunderground v.1.15,2013-08-01 13:46:00,
2013-08-01 09:51:00,73.7,64.1,29.96,SSE,147,5.0,5.0,72,0.00,,,0.00,Wunderground v.1.15,2013-08-01 13:51:00,
2013-08-01 10:05:00,75.9,66.6,29.95,East,80,2.0,11.0,73,0.00,,,0.00,Wunderground v.1.15,2013-08-01 14:05:00,
2013-08-01 10:15:00,77.2,67.1,29.95,ESE,109,2.0,11.0,71,0.00,,,0.00,Wunderground v.1.15,2013-08-01 14:15:00,
2013-08-01 10:25:00,77.1,65.7,29.94,ESE,118,3.0,4.0,68,0.00,,,0.00,Wunderground v.1.15,2013-08-01 14:25:00,
2013-08-01 10:30:00,76.6,65.2,29.94,SE,140,4.0,11.0,68,0.00,,,0.00,Wunderground v.1.15,2013-08-01 14:30:00,
2013-08-01 10:40:00,77.1,67.0,29.94,ENE,75,3.0,11.0,71,0.00,,,0.00,Wunderground v.1.15,2013-08-01 14:40:00,
2013-08-01 10:45:00,77.5,66.1,29.94,ESE,116,2.0,11.0,68,0.00,,,0.00,Wunderground v.1.15,2013-08-01 14:45:00,
2013-08-01 10:51:00,77.0,65.6,29.94,SE,126,2.0,11.0,68,0.00,,,0.00,Wunderground v.1.15,2013-08-01 14:51:00,
2013-08-01 10:56:00,76.0,65.5,29.94,SE,144,2.0,11.0,70,0.00,,,0.00,Wunderground v.1.15,2013-08-01 14:56:00,
2013-08-01 11:10:00,74.2,64.6,29.94,SSE,150,4.0,4.0,72,0.00,,,0.00,Wunderground v.1.15,2013-08-01 15:10:00,
2013-08-01 11:15:00,73.8,64.6,29.93,SE,140,4.0,5.0,73,0.00,,,0.00,Wunderground v.1.15,2013-08-01 15:15:00,
2013-08-01 11:21:00,73.9,64.7,29.93,SE,130,4.0,11.0,73,0.00,,,0.00,Wunderground v.1.15,2013-08-01 15:21:00,
2013-08-01 11:30:00,74.5,64.5,29.93,SE,134,4.0,4.0,71,0.00,,,0.00,Wunderground v.1.15,2013-08-01 15:30:00,
2013-08-01 11:35:00,74.4,65.2,29.93,SSE,147,4.0,11.0,73,0.00,,,0.00,Wunderground v.1.15,2013-08-01 15:35:00,
2013-08-01 11:41:00,74.0,64.8,29.93,South,180,3.0,3.0,73,0.00,,,0.00,Wunderground v.1.15,2013-08-01 15:41:00,
2013-08-01 11:50:00,73.8,64.6,29.93,South,172,3.0,11.0,73,0.00,,,0.00,Wunderground v.1.15,2013-08-01 15:50:00,
2013-08-01 12:05:00,77.3,65.9,29.92,SE,145,2.0,11.0,68,0.00,,,0.00,Wunderground v.1.15,2013-08-01 16:05:00,
2013-08-01 12:10:00,77.4,65.1,29.92,SSE,157,3.0,11.0,66,0.00,,,0.00,Wunderground v.1.15,2013-08-01 16:10:00,
2013-08-01 12:21:00,75.9,64.6,29.92,SE,146,4.0,11.0,68,0.00,,,0.00,Wunderground v.1.15,2013-08-01 16:21:00,
2013-08-01 12:26:00,75.5,64.2,29.92,SSE,157,4.0,11.0,68,0.00,,,0.00,Wunderground v.1.15,2013-08-01 16:26:00,
2013-08-01 12:31:00,76.1,66.0,29.92,SE,143,3.0,11.0,71,0.00,,,0.00,Wunderground v.1.15,2013-08-01 16:31:00,
2013-08-01 12:41:00,77.1,65.3,29.91,South,190,4.0,11.0,67,0.00,,,0.00,Wunderground v.1.15,2013-08-01 16:41:00,
2013-08-01 12:55:00,74.5,63.7,29.91,SSE,162,7.0,8.0,69,0.00,,,0.00,Wunderground v.1.15,2013-08-01 16:55:00,
2013-08-01 13:01:00,74.4,63.6,29.91,South,173,6.0,11.0,69,0.00,,,0.00,Wunderground v.1.15,2013-08-01 17:01:00,
2013-08-01 13:15:00,75.6,63.9,29.91,South,170,5.0,11.0,67,0.00,,,0.00,Wunderground v.1.15,2013-08-01 17:15:00,
2013-08-01 13:21:00,76.3,64.5,29.90,SE,126,5.0,5.0,67,0.00,,,0.00,Wunderground v.1.15,2013-08-01 17:21:00,
2013-08-01 13:31:00,76.8,65.0,29.90,SSE,167,4.0,11.0,67,0.00,,,0.00,Wunderground v.1.15,2013-08-01 17:31:00,
2013-08-01 13:40:00,76.5,64.3,29.90,SE,144,5.0,11.0,66,0.00,,,0.00,Wunderground v.1.15,2013-08-01 17:40:00,
2013-08-01 13:50:00,75.1,64.6,29.90,SSE,159,6.0,11.0,70,0.00,,,0.00,Wunderground v.1.15,2013-08-01 17:50:00,
2013-08-01 13:55:00,74.2,64.6,29.90,SE,131,7.0,11.0,72,0.00,,,0.00,Wunderground v.1.15,2013-08-01 17:55:00,
2013-08-01 14:01:00,73.7,64.1,29.90,SSE,158,5.0,11.0,72,0.00,,,0.00,Wunderground v.1.15,2013-08-01 18:01:00,
2013-08-01 14:10:00,73.4,64.6,29.90,SSE,155,5.0,5.0,74,0.00,,,0.00,Wunderground v.1.15,2013-08-01 18:10:00,
2013-08-01 14:20:00,73.7,64.5,29.89,SSE,162,4.0,11.0,73,0.00,,,0.00,Wunderground v.1.15,2013-08-01 18:20:00,
2013-08-01 14:25:00,73.6,64.4,29.89,South,173,6.0,11.0,73,0.00,,,0.00,Wunderground v.1.15,2013-08-01 18:25:00,
2013-08-01 14:35:00,74.5,65.7,29.89,SSE,164,6.0,11.0,74,0.00,,,0.00,Wunderground v.1.15,2013-08-01 18:35:00,
2013-08-01 14:50:00,74.2,63.8,29.89,SSE,159,6.0,11.0,70,0.00,,,0.00,Wunderground v.1.15,2013-08-01 18:50:00,
2013-08-01 14:56:00,73.8,63.8,29.89,SSE,154,6.0,11.0,71,0.00,,,0.00,Wunderground v.1.15,2013-08-01 18:56:00,
2013-08-01 15:10:00,73.4,64.6,29.89,SSE,164,3.0,3.0,74,0.00,,,0.00,Wunderground v.1.15,2013-08-01 19:10:00,
2013-08-01 15:20:00,73.3,65.3,29.89,South,171,3.0,11.0,76,0.00,,,0.00,Wunderground v.1.15,2013-08-01 19:20:00,
2013-08-01 15:25:00,73.1,64.7,29.89,South,171,4.0,11.0,75,0.00,,,0.00,Wunderground v.1.15,2013-08-01 19:25:00,
2013-08-01 15:35:00,72.5,65.6,29.89,South,178,4.0,11.0,79,0.00,,,0.00,Wunderground v.1.15,2013-08-01 19:35:00,
2013-08-01 15:41:00,72.2,65.7,29.90,South,179,3.0,11.0,80,0.00,,,0.00,Wunderground v.1.15,2013-08-01 19:41:00,
2013-08-01 15:55:00,71.2,65.1,29.90,South,176,7.0,7.0,81,0.00,,,0.00,Wunderground v.1.15,2013-08-01 19:55:00,
2013-08-01 16:00:00,70.8,64.7,29.90,SSW,192,8.0,8.0,81,0.00,,,0.00,Wunderground v.1.15,2013-08-01 20:00:00,
2013-08-01 16:06:00,69.9,64.5,29.91,South,188,8.0,11.0,83,0.00,,,0.00,Wunderground v.1.15,2013-08-01 20:06:00,
2013-08-01 16:15:00,68.5,64.1,29.91,South,174,8.0,13.0,86,0.00,,,0.00,Wunderground v.1.15,2013-08-01 20:15:00,
2013-08-01 16:20:00,68.1,64.1,29.91,South,184,7.0,11.0,87,0.00,,,0.00,Wunderground v.1.15,2013-08-01 20:20:00,
2013-08-01 16:30:00,67.7,64.0,29.91,South,181,7.0,11.0,88,0.00,,,0.00,Wunderground v.1.15,2013-08-01 20:30:00,
2013-08-01 16:35:00,67.6,64.2,29.91,South,180,7.0,11.0,89,0.00,,,0.00,Wunderground v.1.15,2013-08-01 20:35:00,
2013-08-01 16:40:00,67.4,64.0,29.91,South,176,7.0,11.0,89,0.00,,,0.00,Wunderground v.1.15,2013-08-01 20:40:00,
2013-08-01 16:46:00,67.3,63.9,29.91,South,169,7.0,11.0,89,0.00,,,0.00,Wunderground v.1.15,2013-08-01 20:46:00,
2013-08-01 16:55:00,67.2,64.5,29.91,SSE,166,5.0,11.0,91,0.00,,,0.00,Wunderground v.1.15,2013-08-01 20:55:00,
2013-08-01 17:00:00,67.1,63.7,29.91,SSE,167,5.0,11.0,89,0.00,,,0.00,Wunderground v.1.15,2013-08-01 21:00:00,
2013-08-01 17:10:00,66.7,62.4,29.91,SSE,159,8.0,8.0,86,0.00,,,0.00,Wunderground v.1.15,2013-08-01 21:10:00,
2013-08-01 17:20:00,66.4,62.4,29.91,South,172,6.0,6.0,87,0.00,,,0.00,Wunderground v.1.15,2013-08-01 21:20:00,
2013-08-01 17:25:00,66.2,62.5,29.91,SSE,163,5.0,11.0,88,0.00,,,0.00,Wunderground v.1.15,2013-08-01 21:25:00,
2013-08-01 17:30:00,66.2,62.5,29.91,South,179,5.0,11.0,88,0.00,,,0.00,Wunderground v.1.15,2013-08-01 21:30:00,
2013-08-01 17:35:00,66.2,62.5,29.91,South,171,6.0,11.0,88,0.00,,,0.00,Wunderground v.1.15,2013-08-01 21:35:00,
2013-08-01 17:40:00,66.1,62.8,29.91,SSW,199,5.0,11.0,89,0.00,,,0.00,Wunderground v.1.15,2013-08-01 21:40:00,
2013-08-01 17:50:00,65.9,62.6,29.91,SSE,161,5.0,5.0,89,0.00,,,0.00,Wunderground v.1.15,2013-08-01 21:50:00,
2013-08-01 17:55:00,65.8,62.5,29.91,SSE,162,5.0,11.0,89,0.00,,,0.00,Wunderground v.1.15,2013-08-01 21:55:00,
2013-08-01 18:00:00,65.7,62.4,29.90,SSE,155,5.0,5.0,89,0.00,,,0.00,Wunderground v.1.15,2013-08-01 22:00:00,
2013-08-01 18:06:00,65.8,62.8,29.90,SSE,161,4.0,11.0,90,0.00,,,0.00,Wunderground v.1.15,2013-08-01 22:06:00,
2013-08-01 18:11:00,65.8,62.8,29.90,SSE,164,3.0,11.0,90,0.00,,,0.00,Wunderground v.1.15,2013-08-01 22:11:00,
2013-08-01 18:20:00,65.9,62.9,29.90,South,190,3.0,3.0,90,0.00,,,0.00,Wunderground v.1.15,2013-08-01 22:20:00,
2013-08-01 18:25:00,66.0,63.0,29.90,South,171,3.0,4.0,90,0.00,,,0.00,Wunderground v.1.15,2013-08-01 22:25:00,
2013-08-01 18:30:00,66.0,63.0,29.90,SSE,149,3.0,3.0,90,0.00,,,0.00,Wunderground v.1.15,2013-08-01 22:30:00,
2013-08-01 18:35:00,66.1,63.1,29.90,South,170,3.0,4.0,90,0.00,,,0.00,Wunderground v.1.15,2013-08-01 22:35:00,
2013-08-01 18:45:00,66.1,63.1,29.91,South,174,4.0,11.0,90,0.00,,,0.00,Wunderground v.1.15,2013-08-01 22:45:00,
2013-08-01 18:50:00,66.1,63.4,29.90,South,173,4.0,11.0,91,0.00,,,0.00,Wunderground v.1.15,2013-08-01 22:50:00,
2013-08-01 18:55:00,66.0,63.3,29.90,SSE,163,4.0,11.0,91,0.00,,,0.00,Wunderground v.1.15,2013-08-01 22:55:00,
2013-08-01 19:01:00,66.0,63.3,29.90,South,169,4.0,11.0,91,0.00,,,0.00,Wunderground v.1.15,2013-08-01 23:01:00,
2013-08-01 19:10:00,66.0,63.3,29.90,South,171,4.0,11.0,91,0.00,,,0.00,Wunderground v.1.15,2013-08-01 23:10:00,
2013-08-01 19:16:00,66.0,63.3,29.90,SSE,158,4.0,11.0,91,0.00,,,0.00,Wunderground v.1.15,2013-08-01 23:16:00,
2013-08-01 19:25:00,66.0,63.3,29.90,SSE,162,4.0,11.0,91,0.00,,,0.00,Wunderground v.1.15,2013-08-01 23:25:00,
2013-08-01 19:35:00,66.0,63.0,29.90,SSE,165,5.0,11.0,90,0.00,,,0.00,Wunderground v.1.15,2013-08-01 23:35:00,
2013-08-01 19:40:00,66.1,63.1,29.90,South,176,5.0,11.0,90,0.00,,,0.00,Wunderground v.1.15,2013-08-01 23:40:00,
2013-08-01 19:45:00,66.1,62.8,29.90,SSE,162,6.0,11.0,89,0.00,,,0.00,Wunderground v.1.15,2013-08-01 23:45:00,
2013-08-01 19:55:00,65.9,62.2,29.90,South,174,6.0,11.0,88,0.00,,,0.00,Wunderground v.1.15,2013-08-01 23:55:00,
2013-08-01 20:00:00,65.8,62.1,29.90,SSE,161,7.0,7.0,88,0.00,,,0.00,Wunderground v.1.15,2013-08-02 00:00:00,
2013-08-01 20:06:00,65.5,62.2,29.90,SSE,165,6.0,11.0,89,0.00,,,0.01,Wunderground v.1.15,2013-08-02 00:06:00,
2013-08-01 20:16:00,65.0,62.0,29.89,SSE,162,4.0,11.0,90,0.00,,,0.01,Wunderground v.1.15,2013-08-02 00:16:00,
2013-08-01 20:25:00,64.7,61.7,29.89,SSE,163,5.0,11.0,90,0.00,,,0.01,Wunderground v.1.15,2013-08-02 00:25:00,
2013-08-01 20:30:00,64.6,61.3,29.89,SSE,164,5.0,5.0,89,0.00,,,0.01,Wunderground v.1.15,2013-08-02 00:30:00,
2013-08-01 20:35:00,64.5,61.5,29.89,SSE,164,4.0,11.0,90,0.00,,,0.01,Wunderground v.1.15,2013-08-02 00:35:00,
2013-08-01 20:45:00,64.3,61.3,29.89,South,173,4.0,11.0,90,0.00,,,0.01,Wunderground v.1.15,2013-08-02 00:45:00,
2013-08-01 20:50:00,64.2,61.5,29.90,South,174,4.0,4.0,91,0.00,,,0.01,Wunderground v.1.15,2013-08-02 00:50:00,
2013-08-01 20:55:00,64.2,61.5,29.90,South,174,4.0,11.0,91,0.00,,,0.01,Wunderground v.1.15,2013-08-02 00:55:00,
2013-08-01 21:00:00,64.1,61.4,29.90,South,174,4.0,4.0,91,0.00,,,0.01,Wunderground v.1.15,2013-08-02 01:00:00,
2013-08-01 21:05:00,64.0,61.6,29.90,South,173,3.0,11.0,92,0.00,,,0.01,Wunderground v.1.15,2013-08-02 01:05:00,
2013-08-01 21:15:00,63.8,61.7,29.89,South,173,3.0,11.0,93,0.00,,,0.02,Wunderground v.1.15,2013-08-02 01:15:00,
2013-08-01 21:20:00,63.7,61.6,29.89,South,173,3.0,11.0,93,0.00,,,0.02,Wunderground v.1.15,2013-08-02 01:20:00,
2013-08-01 21:25:00,63.6,61.5,29.89,South,173,3.0,11.0,93,0.00,,,0.02,Wunderground v.1.15,2013-08-02 01:25:00,
2013-08-01 21:30:00,63.5,61.4,29.90,South,174,3.0,11.0,93,0.00,,,0.02,Wunderground v.1.15,2013-08-02 01:30:00,
2013-08-01 21:35:00,63.4,61.6,29.90,South,173,3.0,11.0,94,0.00,,,0.02,Wunderground v.1.15,2013-08-02 01:35:00,
2013-08-01 21:45:00,63.4,61.6,29.89,South,169,1.0,11.0,94,0.00,,,0.03,Wunderground v.1.15,2013-08-02 01:45:00,
2013-08-01 21:50:00,63.4,61.6,29.89,South,169,0.0,11.0,94,0.00,,,0.03,Wunderground v.1.15,2013-08-02 01:50:00,
2013-08-01 22:00:00,63.4,61.9,29.89,South,169,0.0,11.0,95,0.00,,,0.03,Wunderground v.1.15,2013-08-02 02:00:00,
2013-08-01 22:05:00,63.3,61.8,29.89,South,169,0.0,11.0,95,0.00,,,0.03,Wunderground v.1.15,2013-08-02 02:05:00,
2013-08-01 22:15:00,63.2,61.7,29.88,South,169,1.0,11.0,95,0.00,,,0.03,Wunderground v.1.15,2013-08-02 02:15:00,
2013-08-01 22:21:00,63.3,61.8,29.88,South,169,1.0,11.0,95,0.00,,,0.04,Wunderground v.1.15,2013-08-02 02:21:00,
2013-08-01 22:30:00,63.4,61.9,29.88,South,169,2.0,2.0,95,0.00,,,0.04,Wunderground v.1.15,2013-08-02 02:30:00,
2013-08-01 22:35:00,63.5,62.0,29.88,South,169,2.0,11.0,95,0.00,,,0.04,Wunderground v.1.15,2013-08-02 02:35:00,
2013-08-01 22:40:00,63.4,61.9,29.87,South,169,2.0,2.0,95,0.00,,,0.04,Wunderground v.1.15,2013-08-02 02:40:00,
2013-08-01 22:50:00,63.4,62.2,29.87,South,169,1.0,1.0,96,0.00,,,0.04,Wunderground v.1.15,2013-08-02 02:50:00,
2013-08-01 22:55:00,63.4,62.2,29.87,South,169,0.0,11.0,96,0.00,,,0.04,Wunderground v.1.15,2013-08-02 02:55:00,
2013-08-01 23:01:00,63.4,62.2,29.87,South,169,0.0,11.0,96,0.00,,,0.04,Wunderground v.1.15,2013-08-02 03:01:00,
2013-08-01 23:10:00,63.4,62.2,29.87,South,169,0.0,11.0,96,0.10,,,0.06,Wunderground v.1.15,2013-08-02 03:10:00,
2013-08-01 23:15:00,63.5,62.3,29.86,South,169,0.0,11.0,96,0.06,,,0.06,Wunderground v.1.15,2013-08-02 03:15:00,
2013-08-01 23:20:00,63.5,62.3,29.86,South,169,0.0,11.0,96,0.04,,,0.06,Wunderground v.1.15,2013-08-02 03:20:00,
2013-08-01 23:25:00,63.5,62.3,29.86,South,169,0.0,11.0,96,0.00,,,0.06,Wunderground v.1.15,2013-08-02 03:25:00,
2013-08-01 23:30:00,63.6,62.4,29.86,South,169,1.0,11.0,96,0.00,,,0.06,Wunderground v.1.15,2013-08-02 03:30:00,
2013-08-01 23:40:00,63.7,62.5,29.86,South,169,1.0,1.0,96,0.00,,,0.06,Wunderground v.1.15,2013-08-02 03:40:00,
2013-08-01 23:46:00,63.7,62.5,29.86,SSE,161,2.0,3.0,96,0.00,,,0.06,Wunderground v.1.15,2013-08-02 03:46:00,
2013-08-01 23:56:00,63.7,62.5,29.86,South,174,4.0,11.0,96,0.00,,,0.07,Wunderground v.1.15,2013-08-02 03:56:00,